createdAt,value
2022-11-29T00:01:23.523Z,92558.78
2022-11-29T00:04:08.157Z,92558.63
2022-11-29T00:06:51.307Z,92562.69
2022-11-29T00:09:34.234Z,92562.44
2022-11-29T00:12:18.242Z,92561.41
2022-11-29T00:15:01.137Z,92563.81
2022-11-29T00:17:44.508Z,92559.56
2022-11-29T00:20:28.855Z,92555.03
2022-11-29T00:23:11.837Z,92552.28
2022-11-29T00:25:54.774Z,92553.75
2022-11-29T00:28:38.666Z,92560.34
2022-11-29T00:31:23.700Z,92559.41
2022-11-29T00:34:08.027Z,92553.28
2022-11-29T00:36:52.422Z,92559.06
2022-11-29T00:39:35.383Z,92554.53
2022-11-29T00:42:18.387Z,92554.41
2022-11-29T00:45:01.378Z,92545.06
2022-11-29T00:47:44.355Z,92551.50
2022-11-29T00:50:27.283Z,92555.44
2022-11-29T00:53:11.711Z,92560.41
2022-11-29T00:55:55.053Z,92559.50
2022-11-29T00:58:38.311Z,92557.59
2022-11-29T01:01:21.366Z,92559.91
2022-11-29T01:04:04.670Z,92557.38
2022-11-29T01:06:47.621Z,92559.00
2022-11-29T01:09:31.951Z,92558.19
2022-11-29T01:12:14.969Z,92558.44
2022-11-29T01:14:59.716Z,92558.81
2022-11-29T01:17:42.749Z,92563.19
2022-11-29T01:20:25.899Z,92560.75
2022-11-29T01:23:08.827Z,92555.66
2022-11-29T01:25:59.638Z,92560.88
2022-11-29T01:28:43.189Z,92558.56
2022-11-29T01:31:28.319Z,92561.25
2022-11-29T01:34:11.851Z,92569.81
2022-11-29T01:36:54.788Z,92561.13
2022-11-29T01:39:38.242Z,92566.09
2022-11-29T01:42:22.629Z,92569.81
2022-11-29T01:45:22.693Z,92565.91
2022-11-29T01:48:05.882Z,92563.72
2022-11-29T01:50:48.861Z,92562.34
2022-11-29T01:53:31.846Z,92554.22
2022-11-29T01:56:16.954Z,92557.34
2022-11-29T01:59:02.741Z,92557.22
2022-11-29T02:01:45.912Z,92557.09
2022-11-29T02:04:32.301Z,92561.50
2022-11-29T02:07:15.442Z,92562.53
2022-11-29T02:09:58.394Z,92557.47
2022-11-29T02:12:55.439Z,92564.28
2022-11-29T02:15:47.533Z,92553.28
2022-11-29T02:18:42.047Z,92557.34
2022-11-29T02:21:43.528Z,92563.94
2022-11-29T02:24:58.734Z,92559.41
2022-11-29T02:28:15.876Z,92560.91
2022-11-29T02:31:31.382Z,92563.34
2022-11-29T02:34:28.500Z,92565.31
2022-11-29T02:37:27.351Z,92567.41
2022-11-29T02:40:41.970Z,92569.59
2022-11-29T02:43:51.193Z,92567.53
2022-11-29T02:46:49.839Z,92563.50
2022-11-29T02:49:45.891Z,92566.03
2022-11-29T02:52:38.254Z,92562.44
2022-11-29T02:55:28.725Z,92563.81
2022-11-29T02:58:21.949Z,92566.38
2022-11-29T03:01:13.223Z,92557.81
2022-11-29T03:04:03.662Z,92561.28
2022-11-29T03:06:55.433Z,92568.13
2022-11-29T03:09:45.163Z,92572.38
2022-11-29T03:12:34.876Z,92569.28
2022-11-29T03:15:28.538Z,92568.72
2022-11-29T03:18:33.172Z,92568.81
2022-11-29T03:21:25.693Z,92570.66
2022-11-29T03:24:16.886Z,92571.25
2022-11-29T03:27:04.866Z,92573.34
2022-11-29T03:29:51.722Z,92562.25
2022-11-29T03:32:41.269Z,92568.13
2022-11-29T03:35:30.825Z,92567.22
2022-11-29T03:38:22.070Z,92571.72
2022-11-29T03:41:18.429Z,92570.78
2022-11-29T03:44:09.325Z,92580.72
2022-11-29T03:46:58.701Z,92581.28
2022-11-29T03:49:46.967Z,92578.06
2022-11-29T03:52:36.781Z,92587.09
2022-11-29T03:55:31.402Z,92580.25
2022-11-29T03:58:28.222Z,92583.38
2022-11-29T04:01:34.026Z,92585.13
2022-11-29T04:04:54.089Z,92574.13
2022-11-29T04:08:06.648Z,92578.63
2022-11-29T04:11:19.869Z,92582.59
2022-11-29T04:14:32.300Z,92578.31
2022-11-29T04:17:39.262Z,92582.81
2022-11-29T04:21:03.655Z,92591.22
2022-11-29T04:24:34.009Z,92580.28
2022-11-29T04:27:37.083Z,92580.97
2022-11-29T04:30:25.636Z,92582.00
2022-11-29T04:33:42.899Z,92583.75
2022-11-29T04:36:46.473Z,92588.59
2022-11-29T04:39:57.988Z,92590.56
2022-11-29T04:43:11.276Z,92588.13
2022-11-29T04:46:08.657Z,92593.66
2022-11-29T04:49:18.333Z,92592.63
2022-11-29T04:52:29.313Z,92585.66
2022-11-29T04:55:31.072Z,92590.28
2022-11-29T04:58:23.781Z,92591.69
2022-11-29T05:01:16.394Z,92596.53
2022-11-29T05:04:07.856Z,92595.00
2022-11-29T05:07:02.583Z,92596.63
2022-11-29T05:09:56.510Z,92596.63
2022-11-29T05:12:49.522Z,92603.06
2022-11-29T05:15:50.911Z,92602.97
2022-11-29T05:19:10.243Z,92612.22
2022-11-29T05:22:02.980Z,92612.31
2022-11-29T05:24:56.397Z,92619.25
2022-11-29T05:27:46.373Z,92614.53
2022-11-29T05:30:44.897Z,92618.25
2022-11-29T05:33:49.710Z,92621.28
2022-11-29T05:36:42.144Z,92620.69
2022-11-29T05:39:42.179Z,92622.28
2022-11-29T05:42:47.989Z,92622.19
2022-11-29T05:45:36.357Z,92623.81
2022-11-29T05:48:27.635Z,92624.59
2022-11-29T05:51:22.296Z,92621.72
2022-11-29T05:54:14.564Z,92634.81
2022-11-29T05:57:07.410Z,92630.63
2022-11-29T05:59:52.398Z,92634.81
2022-11-29T06:02:49.993Z,92637.13
2022-11-29T06:05:37.789Z,92633.75
2022-11-29T06:08:32.640Z,92636.06
2022-11-29T06:11:16.891Z,92636.53
2022-11-29T06:14:06.054Z,92641.63
2022-11-29T06:17:20.106Z,92633.75
2022-11-29T06:20:32.303Z,92643.00
2022-11-29T06:23:31.697Z,92639.31
2022-11-29T06:26:29.256Z,92642.91
2022-11-29T06:29:26.888Z,92641.38
2022-11-29T06:32:20.321Z,92651.56
2022-11-29T06:35:05.794Z,92654.00
2022-11-29T06:37:52.299Z,92650.53
2022-11-29T06:40:37.329Z,92646.25
2022-11-29T06:43:21.095Z,92646.94
2022-11-29T06:46:12.305Z,92652.03
2022-11-29T06:49:03.469Z,92653.63
2022-11-29T06:51:58.349Z,92664.16
2022-11-29T06:54:49.380Z,92657.09
2022-11-29T06:57:44.514Z,92657.00
2022-11-29T07:00:29.524Z,92663.69
2022-11-29T07:03:42.680Z,92658.59
2022-11-29T07:06:28.228Z,92669.34
2022-11-29T07:09:15.625Z,92669.22
2022-11-29T07:11:59.064Z,92671.66
2022-11-29T07:14:44.448Z,92669.13
2022-11-29T07:17:37.388Z,92666.69
2022-11-29T07:20:28.218Z,92666.91
2022-11-29T07:23:18.984Z,92666.91
2022-11-29T07:26:15.003Z,92670.16
2022-11-29T07:29:17.244Z,92670.16
2022-11-29T07:32:12.007Z,92662.41
2022-11-29T07:35:03.013Z,92668.28
2022-11-29T07:37:58.661Z,92671.53
2022-11-29T07:40:47.550Z,92674.78
2022-11-29T07:43:43.181Z,92670.47
2022-11-29T07:46:28.563Z,92682.06
2022-11-29T07:49:12.995Z,92683.66
2022-11-29T07:51:56.600Z,92676.88
2022-11-29T07:54:39.758Z,92681.94
2022-11-29T07:57:22.753Z,92686.13
2022-11-29T08:00:07.341Z,92685.84
2022-11-29T08:02:54.369Z,92687.38
2022-11-29T08:05:39.495Z,92694.78
2022-11-29T08:08:22.769Z,92693.59
2022-11-29T08:11:10.645Z,92688.41
2022-11-29T08:13:57.583Z,92693.94
2022-11-29T08:16:40.556Z,92690.34
2022-11-29T08:19:23.479Z,92691.97
2022-11-29T08:22:07.803Z,92692.81
2022-11-29T08:24:50.763Z,92694.28
2022-11-29T08:27:34.266Z,92694.97
2022-11-29T08:30:22.325Z,92697.16
2022-11-29T08:33:05.717Z,92694.25
2022-11-29T08:35:49.737Z,92694.97
2022-11-29T08:38:34.200Z,92691.63
2022-11-29T08:41:18.942Z,92688.94
2022-11-29T08:44:02.084Z,92696.22
2022-11-29T08:47:01.751Z,92694.63
2022-11-29T08:49:58.562Z,92695.06
2022-11-29T08:53:01.304Z,92702.09
2022-11-29T08:55:46.740Z,92695.69
2022-11-29T08:58:29.917Z,92697.78
2022-11-29T09:01:15.366Z,92706.66
2022-11-29T09:04:02.844Z,92710.59
2022-11-29T09:06:49.267Z,92711.06
2022-11-29T09:09:32.484Z,92714.16
2022-11-29T09:12:16.882Z,92713.78
2022-11-29T09:15:00.425Z,92717.72
2022-11-29T09:17:43.429Z,92717.34
2022-11-29T09:20:26.397Z,92715.34
2022-11-29T09:23:09.384Z,92720.91
2022-11-29T09:25:52.355Z,92720.66
2022-11-29T09:28:36.705Z,92713.56
2022-11-29T09:31:20.210Z,92722.47
2022-11-29T09:34:03.335Z,92719.56
2022-11-29T09:36:46.399Z,92718.50
2022-11-29T09:39:29.377Z,92719.75
2022-11-29T09:42:34.079Z,92713.47
2022-11-29T09:45:25.380Z,92715.63
2022-11-29T09:48:42.094Z,92720.50
2022-11-29T09:51:32.185Z,92725.09
2022-11-29T09:54:31.828Z,92724.84
2022-11-29T09:57:17.466Z,92727.00
2022-11-29T10:00:04.473Z,92721.66
2022-11-29T10:02:54.610Z,92720.47
2022-11-29T10:05:47.746Z,92720.34
2022-11-29T10:08:37.657Z,92720.78
2022-11-29T10:11:24.699Z,92723.88
2022-11-29T10:14:15.536Z,92722.00
2022-11-29T10:17:04.111Z,92721.53
2022-11-29T10:19:53.886Z,92717.09
2022-11-29T10:22:44.930Z,92721.66
2022-11-29T10:25:33.122Z,92718.06
2022-11-29T10:28:18.225Z,92721.19
2022-11-29T10:31:09.788Z,92717.44
2022-11-29T10:33:52.778Z,92720.53
2022-11-29T10:36:42.310Z,92720.28
2022-11-29T10:39:30.884Z,92720.03
2022-11-29T10:42:31.448Z,92718.94
2022-11-29T10:45:19.833Z,92722.03
2022-11-29T10:48:07.742Z,92720.44
2022-11-29T10:50:53.601Z,92721.38
2022-11-29T10:53:38.992Z,92711.16
2022-11-29T10:56:27.545Z,92711.97
2022-11-29T10:59:21.663Z,92707.66
2022-11-29T11:02:06.694Z,92708.91
2022-11-29T11:04:50.143Z,92714.34
2022-11-29T11:07:35.801Z,92713.41
2022-11-29T11:10:27.630Z,92712.84
2022-11-29T11:13:22.289Z,92705.06
2022-11-29T11:16:17.925Z,92712.84
2022-11-29T11:19:27.787Z,92708.72
2022-11-29T11:22:22.058Z,92709.78
2022-11-29T11:25:07.509Z,92710.84
2022-11-29T11:27:52.201Z,92710.50
2022-11-29T11:30:35.231Z,92719.78
2022-11-29T11:33:21.289Z,92718.34
2022-11-29T11:36:13.073Z,92714.94
2022-11-29T11:38:58.715Z,92723.16
2022-11-29T11:42:01.633Z,92718.84
2022-11-29T11:44:50.081Z,92717.91
2022-11-29T11:47:36.926Z,92720.06
2022-11-29T11:50:29.182Z,92718.19
2022-11-29T11:53:22.420Z,92717.94
2022-11-29T11:56:07.923Z,92718.47
2022-11-29T11:58:54.395Z,92719.13
2022-11-29T12:01:39.840Z,92721.56
2022-11-29T12:04:26.422Z,92718.34
2022-11-29T12:07:19.009Z,92722.34
2022-11-29T12:10:06.506Z,92721.56
2022-11-29T12:12:51.440Z,92721.41
2022-11-29T12:15:38.397Z,92720.75
2022-11-29T12:18:29.642Z,92723.97
2022-11-29T12:21:16.510Z,92733.16
2022-11-29T12:24:05.167Z,92726.28
2022-11-29T12:26:57.003Z,92722.63
2022-11-29T12:29:40.854Z,92721.56
2022-11-29T12:32:35.855Z,92729.94
2022-11-29T12:35:34.559Z,92728.31
2022-11-29T12:38:45.422Z,92721.31
2022-11-29T12:41:38.437Z,92728.31
2022-11-29T12:44:30.683Z,92721.69
2022-11-29T12:47:39.382Z,92730.03
2022-11-29T12:50:34.243Z,92727.75
2022-11-29T12:53:34.845Z,92735.72
2022-11-29T12:56:26.979Z,92735.41
2022-11-29T12:59:27.784Z,92736.38
2022-11-29T13:02:25.214Z,92737.69
2022-11-29T13:05:17.776Z,92735.13
2022-11-29T13:08:17.241Z,92732.84
2022-11-29T13:11:10.359Z,92741.47
2022-11-29T13:14:13.874Z,92735.75
2022-11-29T13:17:04.985Z,92736.97
2022-11-29T13:19:54.503Z,92736.16
2022-11-29T13:22:45.218Z,92740.34
2022-11-29T13:25:34.986Z,92744.66
2022-11-29T13:28:24.099Z,92748.69
2022-11-29T13:31:10.501Z,92740.88
2022-11-29T13:34:01.911Z,92741.53
2022-11-29T13:36:55.123Z,92747.84
2022-11-29T13:39:50.696Z,92748.78
2022-11-29T13:42:45.271Z,92753.06
2022-11-29T13:45:32.965Z,92749.06
2022-11-29T13:48:33.694Z,92747.25
2022-11-29T13:51:26.085Z,92749.53
2022-11-29T13:54:29.062Z,92745.50
2022-11-29T13:57:12.123Z,92744.81
2022-11-29T13:59:56.542Z,92746.94
2022-11-29T14:02:39.551Z,92749.88
2022-11-29T14:05:27.107Z,92746.41
2022-11-29T14:08:26.698Z,92746.25
2022-11-29T14:11:22.181Z,92745.06
2022-11-29T14:14:08.767Z,92752.47
2022-11-29T14:16:56.876Z,92750.75
2022-11-29T14:19:39.812Z,92760.63
2022-11-29T14:22:23.415Z,92752.31
2022-11-29T14:28:32.823Z,92756.34
2022-11-29T14:31:56.187Z,92752.88
2022-11-29T14:34:57.651Z,92749.13
2022-11-29T14:37:54.317Z,92748.06
2022-11-29T14:40:47.061Z,92755.97
2022-11-29T14:43:35.239Z,92753.81
2022-11-29T14:46:30.898Z,92747.88
2022-11-29T14:49:25.285Z,92749.38
2022-11-29T14:52:20.101Z,92751.25
2022-11-29T14:55:09.402Z,92757.16
2022-11-29T14:58:05.945Z,92761.22
2022-11-29T15:01:09.546Z,92769.56
2022-11-29T15:03:54.637Z,92771.97
2022-11-29T15:06:45.258Z,92781.09
2022-11-29T15:09:33.464Z,92781.06
2022-11-29T15:12:22.792Z,92783.31
2022-11-29T15:15:20.410Z,92774.88
2022-11-29T15:18:18.409Z,92783.22
2022-11-29T15:21:13.713Z,92779.72
2022-11-29T15:24:04.376Z,92778.78
2022-11-29T15:26:57.539Z,92778.78
2022-11-29T15:29:40.508Z,92778.78
2022-11-29T15:32:26.147Z,92781.22
2022-11-29T15:35:18.629Z,92780.28
2022-11-29T15:38:01.581Z,92779.44
2022-11-29T15:40:52.766Z,92781.47
2022-11-29T15:43:38.787Z,92785.09
2022-11-29T15:46:24.799Z,92776.75
2022-11-29T15:49:18.085Z,92780.38
2022-11-29T15:52:07.373Z,92783.72
2022-11-29T15:54:52.241Z,92779.53
2022-11-29T15:57:39.737Z,92779.94
2022-11-29T16:00:25.700Z,92779.09
2022-11-29T16:03:19.395Z,92788.66
2022-11-29T16:06:07.245Z,92784.50
2022-11-29T16:08:51.670Z,92782.03
2022-11-29T16:11:34.695Z,92783.13
2022-11-29T16:14:23.340Z,92788.34
2022-11-29T16:17:06.252Z,92785.81
2022-11-29T16:19:49.716Z,92798.69
2022-11-29T16:22:32.669Z,92787.69
2022-11-29T16:25:17.953Z,92790.72
2022-11-29T16:28:01.485Z,92792.72
2022-11-29T16:30:45.835Z,92797.00
2022-11-29T16:33:28.932Z,92797.00
2022-11-29T16:36:16.322Z,92803.72
2022-11-29T16:39:05.787Z,92808.97
2022-11-29T16:42:03.795Z,92824.28
2022-11-29T16:45:08.559Z,92830.00
2022-11-29T16:47:58.175Z,92833.28
2022-11-29T16:50:41.216Z,92836.91
2022-11-29T16:53:35.185Z,92847.25
2022-11-29T16:56:19.714Z,92832.78
2022-11-29T16:59:20.697Z,92845.78
2022-11-29T17:02:10.589Z,92840.88
2022-11-29T17:04:56.546Z,92833.47
2022-11-29T17:07:41.131Z,92834.84
2022-11-29T17:10:26.457Z,92830.91
2022-11-29T17:13:10.656Z,92828.75
2022-11-29T17:15:53.560Z,92829.09
2022-11-29T17:18:37.172Z,92832.44
2022-11-29T17:21:24.909Z,92831.28
2022-11-29T17:24:10.832Z,92827.56
2022-11-29T17:26:53.792Z,92827.31
2022-11-29T17:29:36.746Z,92830.78
2022-11-29T17:32:24.875Z,92838.88
2022-11-29T17:35:10.133Z,92842.81
2022-11-29T17:37:54.461Z,92847.69
2022-11-29T17:40:39.488Z,92854.16
2022-11-29T17:43:22.333Z,92851.34
2022-11-29T17:46:09.799Z,92858.06
2022-11-29T17:48:53.100Z,92860.41
2022-11-29T17:51:55.147Z,92851.25
2022-11-29T17:54:39.544Z,92859.38
2022-11-29T17:57:22.408Z,92859.75
2022-11-29T18:00:08.226Z,92865.63
2022-11-29T18:02:51.233Z,92869.81
2022-11-29T18:05:34.904Z,92877.22
2022-11-29T18:08:18.055Z,92875.97
2022-11-29T18:11:07.423Z,92867.81
2022-11-29T18:13:51.222Z,92871.91
2022-11-29T18:16:36.358Z,92869.69
2022-11-29T18:19:21.369Z,92865.50
2022-11-29T18:22:04.365Z,92869.78
2022-11-29T18:24:47.274Z,92872.34
2022-11-29T18:27:31.720Z,92875.34
2022-11-29T18:30:15.673Z,92870.16
2022-11-29T18:32:59.800Z,92872.00
2022-11-29T18:35:42.844Z,92871.66
2022-11-29T18:38:25.762Z,92882.31
2022-11-29T18:41:09.693Z,92889.00
2022-11-29T18:43:59.867Z,92881.00
2022-11-29T18:46:44.762Z,92891.34
2022-11-29T18:49:27.727Z,92892.72
2022-11-29T18:52:10.751Z,92890.31
2022-11-29T18:54:54.681Z,92901.06
2022-11-29T18:57:37.589Z,92894.34
2022-11-29T19:00:22.618Z,92900.13
2022-11-29T19:03:05.630Z,92899.22
2022-11-29T19:05:52.586Z,92897.59
2022-11-29T19:08:35.654Z,92907.09
2022-11-29T19:11:20.359Z,92909.31
2022-11-29T19:14:06.511Z,92917.63
2022-11-29T19:16:51.047Z,92923.09
2022-11-29T19:19:33.801Z,92923.31
2022-11-29T19:22:16.756Z,92919.25
2022-11-29T19:24:59.704Z,92925.97
2022-11-29T19:27:43.686Z,92925.03
2022-11-29T19:30:26.668Z,92927.25
2022-11-29T19:33:10.984Z,92932.13
2022-11-29T19:35:53.985Z,92930.72
2022-11-29T19:38:38.111Z,92938.72
2022-11-29T19:41:23.099Z,92936.84
2022-11-29T19:44:08.631Z,92946.69
2022-11-29T19:46:51.590Z,92949.59
2022-11-29T19:49:36.960Z,92938.34
2022-11-29T19:52:19.881Z,92941.50
2022-11-29T19:55:02.846Z,92930.50
2022-11-29T19:57:45.851Z,92940.59
2022-11-29T20:00:30.058Z,92935.22
2022-11-29T20:03:13.129Z,92940.09
2022-11-29T20:05:57.512Z,92944.63
2022-11-29T20:08:41.035Z,92946.00
2022-11-29T20:11:25.856Z,92937.34
2022-11-29T20:14:09.271Z,92941.38
2022-11-29T20:16:52.245Z,92941.38
2022-11-29T20:19:35.240Z,92931.97
2022-11-29T20:22:19.610Z,92935.22
2022-11-29T20:25:02.502Z,92929.22
2022-11-29T20:27:45.665Z,92924.81
2022-11-29T20:30:28.630Z,92935.72
2022-11-29T20:33:17.327Z,92932.22
2022-11-29T20:36:09.847Z,92929.00
2022-11-29T20:38:59.315Z,92935.22
2022-11-29T20:41:49.477Z,92933.59
2022-11-29T20:44:38.698Z,92932.81
2022-11-29T20:47:23.790Z,92932.13
2022-11-29T20:50:08.107Z,92926.44
2022-11-29T20:53:00.809Z,92937.66
2022-11-29T20:55:48.231Z,92930.59
2022-11-29T20:58:31.440Z,92930.69
2022-11-29T21:01:14.476Z,92929.31
2022-11-29T21:03:57.490Z,92932.19
2022-11-29T21:06:40.752Z,92920.59
2022-11-29T21:09:23.683Z,92922.56
2022-11-29T21:12:09.168Z,92916.78
2022-11-29T21:14:52.632Z,92914.25
2022-11-29T21:17:36.432Z,92919.53
2022-11-29T21:20:22.886Z,92928.69
2022-11-29T21:23:13.388Z,92936.00
2022-11-29T21:26:04.716Z,92929.03
2022-11-29T21:28:58.025Z,92935.06
2022-11-29T21:31:41.628Z,92930.66
2022-11-29T21:34:24.637Z,92928.13
2022-11-29T21:37:10.210Z,92927.19
2022-11-29T21:39:54.517Z,92930.56
2022-11-29T21:42:38.040Z,92927.09
2022-11-29T21:45:22.337Z,92936.09
2022-11-29T21:48:25.636Z,92938.34
2022-11-29T21:51:10.165Z,92935.53
2022-11-29T21:53:52.957Z,92943.88
2022-11-29T21:56:35.959Z,92941.94
2022-11-29T21:59:19.086Z,92947.03
2022-11-29T22:02:03.627Z,92947.03
2022-11-29T22:04:46.952Z,92943.56
2022-11-29T22:07:30.082Z,92946.78
2022-11-29T22:10:13.746Z,92948.41
2022-11-29T22:12:56.848Z,92945.78
2022-11-29T22:15:40.330Z,92944.16
2022-11-29T22:18:27.815Z,92948.53
2022-11-29T22:21:10.733Z,92949.59
2022-11-29T22:23:54.005Z,92945.50
2022-11-29T22:26:37.980Z,92946.44
2022-11-29T22:29:21.505Z,92938.78
2022-11-29T22:32:04.477Z,92942.16
2022-11-29T22:34:49.042Z,92941.34
2022-11-29T22:37:32.127Z,92937.16
2022-11-29T22:40:15.851Z,92941.09
2022-11-29T22:42:58.793Z,92943.16
2022-11-29T22:45:41.778Z,92952.56
2022-11-29T22:48:24.717Z,92950.94
2022-11-29T22:51:11.968Z,92950.31
2022-11-29T22:53:56.483Z,92950.88
2022-11-29T22:56:40.796Z,92956.00
2022-11-29T22:59:23.696Z,92959.41
2022-11-29T23:02:06.688Z,92948.78
2022-11-29T23:04:49.614Z,92955.41
2022-11-29T23:07:33.971Z,92955.41
2022-11-29T23:10:17.141Z,92948.91
2022-11-29T23:13:00.144Z,92952.94
2022-11-29T23:15:43.105Z,92951.94
2022-11-29T23:18:26.284Z,92950.41
2022-11-29T23:21:11.854Z,92952.25
2022-11-29T23:23:57.009Z,92951.66
2022-11-29T23:26:42.216Z,92947.94
2022-11-29T23:29:25.171Z,92940.19
2022-11-29T23:32:08.213Z,92934.50
2022-11-29T23:34:51.156Z,92941.75
2022-11-29T23:37:34.123Z,92942.69
2022-11-29T23:40:18.815Z,92933.44
2022-11-29T23:43:01.940Z,92931.59
2022-11-29T23:45:44.910Z,92933.94
2022-11-29T23:48:27.838Z,92932.88
2022-11-29T23:51:11.292Z,92931.06
2022-11-29T23:53:55.569Z,92931.63
2022-11-29T23:56:39.874Z,92931.44
2022-11-29T23:59:22.827Z,92938.34
